createdAt,value
2022-12-14T00:01:24.817Z,-4.36
2022-12-14T00:03:52.818Z,-4.14
2022-12-14T00:06:22.242Z,-4.24
2022-12-14T00:08:50.933Z,-4.40
2022-12-14T00:11:19.761Z,-4.31
2022-12-14T00:13:48.835Z,-4.27
2022-12-14T00:16:18.124Z,-4.30
2022-12-14T00:18:48.625Z,-4.32
2022-12-14T00:21:15.109Z,-4.32
2022-12-14T00:23:43.227Z,-4.11
2022-12-14T00:26:18.070Z,-4.16
2022-12-14T00:28:45.877Z,-4.18
2022-12-14T00:31:12.950Z,-3.93
2022-12-14T00:33:40.444Z,-4.10
2022-12-14T00:36:09.745Z,-4.10
2022-12-14T00:38:37.291Z,-4.38
2022-12-14T00:41:04.994Z,-4.38
2022-12-14T00:43:32.059Z,-4.11
2022-12-14T00:45:58.644Z,-4.06
2022-12-14T00:48:26.508Z,-4.17
2022-12-14T00:50:54.909Z,-4.14
2022-12-14T00:53:22.354Z,-4.00
2022-12-14T00:55:50.708Z,-4.00
2022-12-14T00:58:22.295Z,-4.24
2022-12-14T01:00:59.235Z,-4.33
2022-12-14T01:03:26.090Z,-4.18
2022-12-14T01:05:52.942Z,-4.06
2022-12-14T01:08:20.157Z,-3.90
2022-12-14T01:10:46.636Z,-3.96
2022-12-14T01:13:13.083Z,-4.07
2022-12-14T01:15:39.638Z,-3.87
2022-12-14T01:18:06.123Z,-3.98
2022-12-14T01:20:32.684Z,-3.92
2022-12-14T01:22:59.287Z,-3.90
2022-12-14T01:25:26.307Z,-3.87
2022-12-14T01:27:52.820Z,-3.73
2022-12-14T01:30:19.518Z,-3.84
2022-12-14T01:32:47.113Z,-3.62
2022-12-14T01:35:13.644Z,-3.86
2022-12-14T01:37:40.107Z,-3.76
2022-12-14T01:40:07.149Z,-3.79
2022-12-14T01:42:38.123Z,-3.69
2022-12-14T01:45:05.886Z,-3.84
2022-12-14T01:47:43.776Z,-3.70
2022-12-14T01:50:35.205Z,-3.80
2022-12-14T01:53:08.593Z,-3.70
2022-12-14T01:55:42.080Z,-3.87
2022-12-14T01:58:17.088Z,-3.81
2022-12-14T02:00:44.643Z,-3.86
2022-12-14T02:03:38.896Z,-3.77
2022-12-14T02:06:10.721Z,-3.62
2022-12-14T02:08:39.345Z,-3.53
2022-12-14T02:11:05.962Z,-3.76
2022-12-14T02:13:38.867Z,-3.66
2022-12-14T02:16:05.708Z,-3.58
2022-12-14T02:18:32.852Z,-3.66
2022-12-14T02:21:18.576Z,-3.62
2022-12-14T02:23:57.161Z,-3.43
2022-12-14T02:26:57.661Z,-3.50
2022-12-14T02:29:27.140Z,-3.53
2022-12-14T02:32:21.660Z,-3.75
2022-12-14T02:35:19.118Z,-3.73
2022-12-14T02:38:07.930Z,-3.68
2022-12-14T02:41:10.398Z,-3.62
2022-12-14T02:43:36.832Z,-3.75
2022-12-14T02:46:15.572Z,-3.56
2022-12-14T02:48:50.191Z,-3.60
2022-12-14T02:51:38.228Z,-3.58
2022-12-14T02:54:13.171Z,-3.62
2022-12-14T02:56:53.065Z,-3.55
2022-12-14T02:59:20.257Z,-3.39
2022-12-14T03:01:50.320Z,-3.61
2022-12-14T03:04:18.558Z,-3.72
2022-12-14T03:06:57.794Z,-3.80
2022-12-14T03:09:27.042Z,-3.66
2022-12-14T03:12:03.231Z,-3.80
2022-12-14T03:14:35.640Z,-3.79
2022-12-14T03:17:19.018Z,-3.91
2022-12-14T03:19:58.733Z,-3.93
2022-12-14T03:22:40.201Z,-3.97
2022-12-14T03:25:12.908Z,-3.87
2022-12-14T03:27:44.630Z,-3.82
2022-12-14T03:30:27.123Z,-3.89
2022-12-14T03:33:15.921Z,-3.84
2022-12-14T03:35:49.392Z,-3.77
2022-12-14T03:38:38.885Z,-3.65
2022-12-14T03:41:18.446Z,-3.89
2022-12-14T03:44:08.467Z,-3.83
2022-12-14T03:46:52.361Z,-3.90
2022-12-14T03:49:50.085Z,-3.96
2022-12-14T03:52:28.881Z,-3.78
2022-12-14T03:55:20.766Z,-3.80
2022-12-14T03:58:22.995Z,-3.79
2022-12-14T04:01:00.445Z,-3.88
2022-12-14T04:03:54.454Z,-3.84
2022-12-14T04:06:39.600Z,-3.65
2022-12-14T04:09:27.892Z,-3.77
2022-12-14T04:12:22.075Z,-3.85
2022-12-14T04:15:15.161Z,-3.83
2022-12-14T04:18:03.247Z,-3.69
2022-12-14T04:20:44.207Z,-3.54
2022-12-14T04:23:37.173Z,-3.69
2022-12-14T04:26:09.078Z,-3.69
2022-12-14T04:29:09.599Z,-3.88
2022-12-14T04:31:39.769Z,-3.79
2022-12-14T04:34:10.112Z,-3.65
2022-12-14T04:36:45.395Z,-3.40
2022-12-14T04:39:18.477Z,-3.57
2022-12-14T04:41:49.548Z,-3.57
2022-12-14T04:44:24.369Z,-3.52
2022-12-14T04:46:54.067Z,-3.53
2022-12-14T04:49:27.195Z,-3.50
2022-12-14T04:52:14.635Z,-3.70
2022-12-14T04:54:53.333Z,-3.53
2022-12-14T04:57:25.638Z,-3.49
2022-12-14T04:59:52.496Z,-3.46
2022-12-14T05:02:34.150Z,-3.34
2022-12-14T05:05:21.887Z,-3.27
2022-12-14T05:08:06.880Z,-3.28
2022-12-14T05:10:44.083Z,-3.42
2022-12-14T05:13:18.890Z,-3.38
2022-12-14T05:15:50.169Z,-3.13
2022-12-14T05:18:17.421Z,-3.35
2022-12-14T05:20:43.882Z,-3.36
2022-12-14T05:23:10.314Z,-3.34
2022-12-14T05:25:36.774Z,-3.22
2022-12-14T05:28:03.505Z,-3.12
2022-12-14T05:30:30.427Z,-3.60
2022-12-14T05:32:57.464Z,-3.63
2022-12-14T05:35:23.977Z,-3.44
2022-12-14T05:37:50.608Z,-3.78
2022-12-14T05:40:17.164Z,-3.81
2022-12-14T05:42:46.042Z,-3.77
2022-12-14T05:45:15.394Z,-3.68
2022-12-14T05:47:41.860Z,-3.62
2022-12-14T05:50:09.093Z,-3.56
2022-12-14T05:52:35.599Z,-3.40
2022-12-14T05:55:04.469Z,-3.47
2022-12-14T05:57:31.557Z,-3.50
2022-12-14T05:59:58.052Z,-3.47
2022-12-14T06:02:24.689Z,-3.71
2022-12-14T06:04:51.315Z,-3.85
2022-12-14T06:07:20.625Z,-3.64
2022-12-14T06:09:49.534Z,-3.52
2022-12-14T06:12:16.052Z,-3.49
2022-12-14T06:14:42.560Z,-3.53
2022-12-14T06:17:09.098Z,-3.76
2022-12-14T06:19:35.569Z,-3.90
2022-12-14T06:22:02.015Z,-3.96
2022-12-14T06:24:28.474Z,-4.00
2022-12-14T06:26:55.124Z,-3.94
2022-12-14T06:29:21.722Z,-3.88
2022-12-14T06:31:49.154Z,-4.03
2022-12-14T06:34:17.570Z,-3.91
2022-12-14T06:36:44.282Z,-3.89
2022-12-14T06:39:13.172Z,-3.53
2022-12-14T06:41:40.691Z,-3.78
2022-12-14T06:44:11.046Z,-3.71
2022-12-14T06:46:38.834Z,-3.83
2022-12-14T06:49:06.384Z,-3.88
2022-12-14T06:51:39.348Z,-3.57
2022-12-14T06:54:06.596Z,-3.42
2022-12-14T06:56:33.221Z,-3.64
2022-12-14T06:58:59.763Z,-3.55
2022-12-14T07:01:26.453Z,-3.70
2022-12-14T07:03:55.816Z,-3.51
2022-12-14T07:06:24.509Z,-3.66
2022-12-14T07:08:54.473Z,-3.66
2022-12-14T07:11:21.719Z,-3.54
2022-12-14T07:13:49.166Z,-3.55
2022-12-14T07:16:24.699Z,-3.52
2022-12-14T07:18:52.400Z,-3.70
2022-12-14T07:21:20.574Z,-3.87
2022-12-14T07:23:48.224Z,-3.89
2022-12-14T07:26:21.532Z,-3.97
2022-12-14T07:28:48.814Z,-3.76
2022-12-14T07:31:21.895Z,-3.96
2022-12-14T07:33:49.230Z,-4.19
2022-12-14T07:36:18.219Z,-4.15
2022-12-14T07:38:46.561Z,-4.34
2022-12-14T07:41:22.076Z,-4.35
2022-12-14T07:43:49.936Z,-4.28
2022-12-14T07:46:22.241Z,-4.34
2022-12-14T07:48:50.916Z,-4.17
2022-12-14T07:51:20.918Z,-4.20
2022-12-14T07:53:47.884Z,-4.10
2022-12-14T07:56:19.913Z,-4.05
2022-12-14T07:58:46.754Z,-4.10
2022-12-14T08:01:25.953Z,-4.08
2022-12-14T08:03:55.835Z,-3.70
2022-12-14T08:06:24.199Z,-3.75
2022-12-14T08:08:51.748Z,-3.77
2022-12-14T08:11:18.810Z,-3.78
2022-12-14T08:13:46.809Z,-3.78
2022-12-14T08:16:15.609Z,-3.88
2022-12-14T08:18:43.228Z,-3.79
2022-12-14T08:21:12.522Z,-3.60
2022-12-14T08:23:39.135Z,-3.31
2022-12-14T08:26:06.521Z,-3.41
2022-12-14T08:28:34.516Z,-3.50
2022-12-14T08:31:06.634Z,-3.67
2022-12-14T08:33:35.395Z,-4.08
2022-12-14T08:36:10.134Z,-4.05
2022-12-14T08:38:37.460Z,-3.89
2022-12-14T08:41:12.050Z,-3.73
2022-12-14T08:43:39.292Z,-3.95
2022-12-14T08:46:06.845Z,-3.95
2022-12-14T08:48:33.391Z,-3.85
2022-12-14T08:51:08.387Z,-3.56
2022-12-14T08:53:36.315Z,-3.67
2022-12-14T08:56:08.334Z,-3.70
2022-12-14T08:58:36.327Z,-3.88
2022-12-14T09:01:04.652Z,-3.86
2022-12-14T09:03:34.076Z,-4.06
2022-12-14T09:06:08.955Z,-3.76
2022-12-14T09:08:36.028Z,-3.47
2022-12-14T09:11:04.445Z,-3.62
2022-12-14T09:13:32.258Z,-3.49
2022-12-14T09:16:01.607Z,-3.53
2022-12-14T09:18:28.971Z,-3.32
2022-12-14T09:20:56.105Z,-3.44
2022-12-14T09:23:24.500Z,-3.01
2022-12-14T09:26:07.524Z,-3.02
2022-12-14T09:28:37.331Z,-3.06
2022-12-14T09:31:07.409Z,-2.65
2022-12-14T09:33:34.210Z,-2.96
2022-12-14T09:36:06.447Z,-2.76
2022-12-14T09:38:35.806Z,-2.67
2022-12-14T09:41:07.446Z,-3.00
2022-12-14T09:43:39.970Z,-2.51
2022-12-14T09:46:25.116Z,-2.96
2022-12-14T09:48:53.090Z,-2.85
2022-12-14T09:51:22.564Z,-2.80
2022-12-14T09:54:02.732Z,-2.45
2022-12-14T09:56:29.527Z,-2.76
2022-12-14T09:59:01.876Z,-2.31
2022-12-14T10:02:13.891Z,-2.54
2022-12-14T10:04:55.415Z,-2.79
2022-12-14T10:07:41.699Z,-2.59
2022-12-14T10:10:24.049Z,-2.23
2022-12-14T10:13:13.230Z,-2.55
2022-12-14T10:15:42.415Z,-2.33
2022-12-14T10:18:57.813Z,-2.69
2022-12-14T10:21:23.467Z,-2.15
2022-12-14T10:24:03.411Z,-2.12
2022-12-14T10:26:41.121Z,-2.31
2022-12-14T10:29:12.888Z,-2.23
2022-12-14T10:32:17.476Z,-2.41
2022-12-14T10:34:44.110Z,-2.52
2022-12-14T10:37:30.359Z,-2.57
2022-12-14T10:40:00.222Z,-2.96
2022-12-14T10:43:15.199Z,-3.04
2022-12-14T10:46:10.110Z,-2.91
2022-12-14T10:48:49.024Z,-2.80
2022-12-14T10:51:37.571Z,-2.91
2022-12-14T10:54:22.616Z,-2.71
2022-12-14T10:56:50.606Z,-3.05
2022-12-14T10:59:33.611Z,-3.08
2022-12-14T11:02:14.124Z,-2.91
2022-12-14T11:04:49.924Z,-2.87
2022-12-14T11:07:18.704Z,-2.90
2022-12-14T11:09:45.812Z,-2.67
2022-12-14T11:12:26.899Z,-2.14
2022-12-14T11:15:00.679Z,-2.25
2022-12-14T11:17:35.546Z,-2.63
2022-12-14T11:20:19.689Z,-2.73
2022-12-14T11:22:55.692Z,-2.63
2022-12-14T11:25:33.570Z,-2.80
2022-12-14T11:28:05.661Z,-2.63
2022-12-14T11:30:32.315Z,-2.69
2022-12-14T11:32:58.942Z,-2.68
2022-12-14T11:35:25.540Z,-2.68
2022-12-14T11:37:59.423Z,-2.77
2022-12-14T11:40:27.334Z,-2.50
2022-12-14T11:43:03.107Z,-2.03
2022-12-14T11:45:32.562Z,-2.08
2022-12-14T11:48:15.938Z,-2.16
2022-12-14T11:50:44.559Z,-2.06
2022-12-14T11:53:16.229Z,-2.32
2022-12-14T11:56:04.734Z,-2.05
2022-12-14T11:58:46.174Z,-2.35
2022-12-14T12:01:18.549Z,-2.08
2022-12-14T12:03:49.093Z,-1.87
2022-12-14T12:06:22.464Z,-1.90
2022-12-14T12:08:56.091Z,-1.84
2022-12-14T12:11:26.391Z,-1.98
2022-12-14T12:13:59.307Z,-2.09
2022-12-14T12:16:28.115Z,-2.03
2022-12-14T12:19:05.216Z,-1.71
2022-12-14T12:21:40.217Z,-1.61
2022-12-14T12:24:09.380Z,-1.55
2022-12-14T12:26:41.320Z,-1.60
2022-12-14T12:29:31.581Z,-1.71
2022-12-14T12:32:00.772Z,-1.67
2022-12-14T12:34:44.667Z,-1.44
2022-12-14T12:37:27.596Z,-1.15
2022-12-14T12:40:00.544Z,-1.14
2022-12-14T12:42:34.776Z,-1.23
2022-12-14T12:45:12.842Z,-1.36
2022-12-14T12:47:48.494Z,-1.47
2022-12-14T12:50:19.374Z,-1.39
2022-12-14T12:53:05.365Z,-1.23
2022-12-14T12:55:36.756Z,-1.37
2022-12-14T12:58:09.425Z,-1.45
2022-12-14T13:00:38.203Z,-1.45
2022-12-14T13:03:15.860Z,-1.58
2022-12-14T13:05:46.647Z,-1.66
2022-12-14T13:08:23.475Z,-1.57
2022-12-14T13:13:45.212Z,-1.79
2022-12-14T13:16:24.620Z,-1.79
2022-12-14T13:19:04.797Z,-1.82
2022-12-14T13:21:47.905Z,-1.97
2022-12-14T13:24:19.130Z,-2.00
2022-12-14T13:27:12.318Z,-1.84
2022-12-14T13:29:50.543Z,-1.87
2022-12-14T13:32:37.934Z,-2.22
2022-12-14T13:35:29.198Z,-2.04
2022-12-14T13:38:01.818Z,-1.99
2022-12-14T13:40:56.901Z,-2.19
2022-12-14T13:44:14.935Z,-2.38
2022-12-14T13:46:41.932Z,-2.40
2022-12-14T13:49:19.361Z,-2.25
2022-12-14T13:51:50.087Z,-2.20
2022-12-14T13:54:33.079Z,-2.23
2022-12-14T13:57:07.960Z,-2.31
2022-12-14T13:59:42.284Z,-2.37
2022-12-14T14:02:27.306Z,-2.31
2022-12-14T14:05:16.264Z,-2.46
2022-12-14T14:08:09.070Z,-2.35
2022-12-14T14:10:38.117Z,-2.76
2022-12-14T14:13:29.423Z,-2.55
2022-12-14T14:18:49.884Z,-2.58
2022-12-14T14:21:22.455Z,-2.53
2022-12-14T14:23:58.500Z,-2.64
2022-12-14T14:26:27.990Z,-2.56
2022-12-14T14:29:13.301Z,-2.51
2022-12-14T14:31:46.128Z,-2.66
2022-12-14T14:34:37.569Z,-2.63
2022-12-14T14:37:38.598Z,-2.54
2022-12-14T14:40:23.519Z,-2.53
2022-12-14T14:43:06.564Z,-2.51
2022-12-14T14:45:49.936Z,-2.72
2022-12-14T14:48:34.883Z,-2.63
2022-12-14T14:51:08.759Z,-2.92
2022-12-14T14:53:36.827Z,-2.95
2022-12-14T14:56:32.344Z,-2.80
2022-12-14T14:59:16.841Z,-2.62
2022-12-14T15:02:01.396Z,-2.48
2022-12-14T15:04:41.366Z,-2.47
2022-12-14T15:07:15.232Z,-2.71
2022-12-14T15:09:59.518Z,-2.93
2022-12-14T15:12:37.201Z,-2.66
2022-12-14T15:15:18.646Z,-2.84
2022-12-14T15:17:45.783Z,-2.75
2022-12-14T15:20:40.044Z,-2.77
2022-12-14T15:23:07.146Z,-3.16
2022-12-14T15:25:33.757Z,-2.82
2022-12-14T15:28:10.216Z,-2.73
2022-12-14T15:30:36.861Z,-3.05
2022-12-14T15:33:24.975Z,-3.19
2022-12-14T15:35:51.555Z,-3.41
2022-12-14T15:38:22.692Z,-3.04
2022-12-14T15:41:00.651Z,-3.24
2022-12-14T15:43:28.080Z,-3.13
2022-12-14T15:46:04.040Z,-2.98
2022-12-14T15:48:34.292Z,-3.01
2022-12-14T15:51:04.365Z,-2.91
2022-12-14T15:53:37.643Z,-2.91
2022-12-14T15:56:18.143Z,-2.89
2022-12-14T15:58:45.156Z,-2.84
2022-12-14T16:01:18.723Z,-2.95
2022-12-14T16:03:58.760Z,-3.05
2022-12-14T16:06:28.890Z,-2.87
2022-12-14T16:09:18.294Z,-2.84
2022-12-14T16:11:48.205Z,-2.98
2022-12-14T16:14:29.828Z,-2.92
2022-12-14T16:16:56.649Z,-2.92
2022-12-14T16:19:31.199Z,-2.96
2022-12-14T16:22:09.869Z,-3.22
2022-12-14T16:24:38.232Z,-3.08
2022-12-14T16:27:04.898Z,-3.06
2022-12-14T16:29:33.423Z,-2.97
2022-12-14T16:32:14.590Z,-3.39
2022-12-14T16:34:47.518Z,-3.35
2022-12-14T16:37:33.911Z,-3.32
2022-12-14T16:40:00.888Z,-3.31
2022-12-14T16:42:28.860Z,-3.21
2022-12-14T16:44:55.341Z,-3.15
2022-12-14T16:47:34.079Z,-3.47
2022-12-14T16:50:01.037Z,-3.19
2022-12-14T16:52:32.839Z,-3.15
2022-12-14T16:55:20.443Z,-3.15
2022-12-14T16:57:54.132Z,-3.26
2022-12-14T17:00:29.823Z,-3.02
2022-12-14T17:02:58.082Z,-3.07
2022-12-14T17:05:26.357Z,-3.11
2022-12-14T17:07:52.812Z,-3.05
2022-12-14T17:10:25.158Z,-3.03
2022-12-14T17:12:56.173Z,-3.01
2022-12-14T17:15:24.827Z,-3.30
2022-12-14T17:17:53.759Z,-3.64
2022-12-14T17:20:24.473Z,-3.53
2022-12-14T17:22:51.384Z,-3.68
2022-12-14T17:25:18.419Z,-3.45
2022-12-14T17:27:45.179Z,-3.62
2022-12-14T17:30:18.480Z,-3.66
2022-12-14T17:32:45.456Z,-3.75
2022-12-14T17:35:20.380Z,-3.71
2022-12-14T17:37:47.309Z,-3.61
2022-12-14T17:40:16.455Z,-3.32
2022-12-14T17:42:47.251Z,-3.69
2022-12-14T17:45:30.373Z,-3.78
2022-12-14T17:47:58.027Z,-3.85
2022-12-14T17:50:28.056Z,-3.55
2022-12-14T17:52:54.655Z,-3.56
2022-12-14T17:55:26.871Z,-3.63
2022-12-14T17:57:54.353Z,-3.62
2022-12-14T18:00:43.277Z,-3.51
2022-12-14T18:03:12.049Z,-3.58
2022-12-14T18:05:46.481Z,-3.75
2022-12-14T18:08:16.259Z,-3.35
2022-12-14T18:10:43.152Z,-3.69
2022-12-14T18:13:11.367Z,-3.52
2022-12-14T18:15:41.873Z,-3.75
2022-12-14T18:18:08.801Z,-3.65
2022-12-14T18:20:36.488Z,-3.83
2022-12-14T18:23:03.035Z,-3.68
2022-12-14T18:25:35.239Z,-3.89
2022-12-14T18:28:04.264Z,-4.18
2022-12-14T18:30:38.690Z,-4.34
2022-12-14T18:33:16.559Z,-4.38
2022-12-14T18:35:44.617Z,-4.47
2022-12-14T18:38:11.838Z,-4.30
2022-12-14T18:40:39.447Z,-4.32
2022-12-14T18:43:05.971Z,-4.44
2022-12-14T18:45:34.338Z,-4.40
2022-12-14T18:48:01.606Z,-4.39
2022-12-14T18:50:28.943Z,-4.37
2022-12-14T18:52:55.786Z,-4.38
2022-12-14T18:55:28.480Z,-4.33
2022-12-14T18:57:56.688Z,-4.12
2022-12-14T19:00:25.426Z,-4.41
2022-12-14T19:02:53.089Z,-4.56
2022-12-14T19:05:25.557Z,-4.56
2022-12-14T19:07:52.798Z,-4.55
2022-12-14T19:10:22.538Z,-4.50
2022-12-14T19:12:50.249Z,-4.27
2022-12-14T19:15:20.026Z,-4.08
2022-12-14T19:17:46.951Z,-4.30
2022-12-14T19:20:15.200Z,-4.35
2022-12-14T19:22:42.208Z,-4.47
2022-12-14T19:25:09.560Z,-4.59
2022-12-14T19:28:19.964Z,-4.58
2022-12-14T19:30:24.113Z,-4.43
2022-12-14T19:32:56.130Z,-4.59
2022-12-14T19:35:24.169Z,-4.32
2022-12-14T19:37:51.400Z,-4.10
2022-12-14T19:40:18.677Z,-4.53
2022-12-14T19:42:46.804Z,-4.66
2022-12-14T19:45:14.196Z,-4.74
2022-12-14T19:47:40.747Z,-4.75
2022-12-14T19:50:07.883Z,-4.84
2022-12-14T19:52:34.649Z,-4.87
2022-12-14T19:55:01.869Z,-4.99
2022-12-14T19:57:28.498Z,-5.25
2022-12-14T19:59:56.947Z,-5.09
2022-12-14T20:02:23.652Z,-5.03
2022-12-14T20:04:50.348Z,-5.05
2022-12-14T20:07:16.997Z,-4.96
2022-12-14T20:09:43.449Z,-5.36
2022-12-14T20:12:11.236Z,-5.38
2022-12-14T20:14:42.600Z,-5.26
2022-12-14T20:17:10.825Z,-5.15
2022-12-14T20:19:39.043Z,-5.38
2022-12-14T20:22:06.912Z,-5.41
2022-12-14T20:24:33.551Z,-5.46
2022-12-14T20:27:00.082Z,-5.38
2022-12-14T20:29:27.565Z,-5.43
2022-12-14T20:31:55.276Z,-5.56
2022-12-14T20:34:22.408Z,-5.64
2022-12-14T20:36:49.344Z,-5.39
2022-12-14T20:39:15.876Z,-5.21
2022-12-14T20:41:42.393Z,-5.08
2022-12-14T20:44:11.849Z,-5.10
2022-12-14T20:46:42.767Z,-4.96
2022-12-14T20:49:16.014Z,-4.96
2022-12-14T20:51:43.792Z,-5.11
2022-12-14T20:54:13.363Z,-5.56
2022-12-14T20:56:40.242Z,-5.62
2022-12-14T20:59:08.008Z,-5.73
2022-12-14T21:01:37.244Z,-5.70
2022-12-14T21:04:04.449Z,-5.32
2022-12-14T21:06:32.974Z,-5.54
2022-12-14T21:09:05.587Z,-5.61
2022-12-14T21:11:55.991Z,-5.32
2022-12-14T21:14:24.418Z,-5.10
2022-12-14T21:16:51.393Z,-5.43
2022-12-14T21:19:18.066Z,-5.60
2022-12-14T21:21:48.257Z,-5.31
2022-12-14T21:24:37.272Z,-5.28
2022-12-14T21:27:08.294Z,-5.24
2022-12-14T21:29:34.847Z,-5.64
2022-12-14T21:32:01.547Z,-5.77
2022-12-14T21:34:29.185Z,-5.56
2022-12-14T21:36:55.662Z,-5.62
2022-12-14T21:39:22.245Z,-5.56
2022-12-14T21:42:07.150Z,-5.54
2022-12-14T21:44:36.741Z,-5.60
2022-12-14T21:47:05.891Z,-5.49
2022-12-14T21:49:32.491Z,-5.24
2022-12-14T21:51:59.037Z,-5.48
2022-12-14T21:54:26.162Z,-5.34
2022-12-14T21:57:11.233Z,-5.52
2022-12-14T21:59:40.794Z,-5.53
2022-12-14T22:02:12.812Z,-5.52
2022-12-14T22:04:40.201Z,-5.44
2022-12-14T22:07:06.780Z,-5.37
2022-12-14T22:09:33.245Z,-5.25
2022-12-14T22:11:59.734Z,-5.29
2022-12-14T22:14:26.297Z,-5.34
2022-12-14T22:16:53.523Z,-5.42
2022-12-14T22:19:24.489Z,-5.28
2022-12-14T22:21:52.272Z,-4.81
2022-12-14T22:24:20.666Z,-4.80
2022-12-14T22:26:47.222Z,-4.74
2022-12-14T22:29:15.366Z,-4.71
2022-12-14T22:31:42.080Z,-4.63
2022-12-14T22:34:15.485Z,-4.60
2022-12-14T22:36:41.948Z,-5.12
2022-12-14T22:39:09.389Z,-4.97
2022-12-14T22:41:37.443Z,-5.21
2022-12-14T22:44:04.994Z,-5.21
2022-12-14T22:46:33.171Z,-4.94
2022-12-14T22:49:00.121Z,-4.71
2022-12-14T22:51:29.100Z,-5.00
2022-12-14T22:53:56.237Z,-5.18
2022-12-14T22:56:28.565Z,-4.90
2022-12-14T22:59:18.418Z,-4.64
2022-12-14T23:01:49.737Z,-4.53
2022-12-14T23:04:17.770Z,-4.81
2022-12-14T23:06:45.015Z,-5.04
2022-12-14T23:09:30.428Z,-5.23
2022-12-14T23:12:21.325Z,-5.20
2022-12-14T23:15:07.607Z,-5.36
2022-12-14T23:17:53.587Z,-5.35
2022-12-14T23:20:38.887Z,-5.42
2022-12-14T23:23:25.634Z,-5.43
2022-12-14T23:26:10.590Z,-5.11
2022-12-14T23:28:55.350Z,-5.25
2022-12-14T23:31:40.216Z,-5.06
2022-12-14T23:34:25.110Z,-5.00
2022-12-14T23:37:12.691Z,-4.76
2022-12-14T23:40:00.078Z,-4.56
2022-12-14T23:42:44.966Z,-4.52
2022-12-14T23:45:29.633Z,-4.60
2022-12-14T23:48:15.005Z,-4.68
2022-12-14T23:51:00.208Z,-4.62
2022-12-14T23:53:45.348Z,-4.62
2022-12-14T23:56:35.341Z,-4.49
2022-12-14T23:59:22.788Z,-4.54
